PWSweather.com
Personal Weather Stations
Station Observations
DW1039
Liberty & Fairfield Townships, Hamilton, OH 45011

Liberty & Fairfield TownshipsHamilton, OH 45011

Lat: 39.3933, Lon: -84.477

Elevation: 780

Station Type: Davis Vantage Pro2 (Daytime Fan Aspirated)

http://www.lfweathercenter.com/

Latest ConditionsUpdated 7:00:12 PM EDT Wednesday, Oct 16, 2019
Currently Today's Max Today's Min Today's Average
Temperature 50.4°F10.2°C 67.2°F19.6°C 44.3°F6.8°C 51.3°F10.7°C
Dew Point 38.7°F3.7°C 59.0°F15.0°C 38.4°F3.6°C 44.4°F6.9°C
Winds 2.0 mph NE3.2 kmh NE 6.0 mph -9.7 kmh - - 2.2 mph 3.5 kmh
Wind Gusts 9.0 mph14.5 kmh 17.0 mph27.4 kmh - -
Humidity 64% 91% 62% 78%
Pressure 29.92 in1013.2 mb 29.92 in1013.2 mb 29.71 in1006.1 mb -
Hour Temp Dew Point Humidity Winds Wind Gusts Pressure Precip Precip Rate Daily Precip Total
07:00 PM 50.4°F10.2°C 38.7°F3.7°C 64% 2.0 mph NE3.2 kmh NE 9.0 mph14.5 kmh 29.92 in1013.2 mb 0.00 in0.0 mm 0.00 in0.0 mm 0.10 in2.5 mm
06:50 PM 50.5°F10.3°C 38.4°F3.6°C 63% 5.0 mph S8.0 kmh S 11.0 mph17.7 kmh 29.92 in1013.2 mb 0.00 in0.0 mm 0.00 in0.0 mm 0.10 in2.5 mm
06:40 PM 50.6°F10.3°C 38.5°F3.6°C 63% 3.0 mph WNW4.8 kmh WNW 11.0 mph17.7 kmh 29.92 in1013.2 mb 0.00 in0.0 mm 0.00 in0.0 mm 0.10 in2.5 mm
06:30 PM 50.6°F10.3°C 38.5°F3.6°C 63% 3.0 mph SW4.8 kmh SW 7.0 mph11.3 kmh 29.92 in1013.2 mb 0.00 in0.0 mm 0.00 in0.0 mm 0.10 in2.5 mm
06:20 PM 50.7°F10.4°C 38.6°F3.7°C 63% 3.0 mph ESE4.8 kmh ESE 10.0 mph16.1 kmh 29.91 in1012.9 mb 0.00 in0.0 mm 0.00 in0.0 mm 0.10 in2.5 mm
06:10 PM 50.9°F10.5°C 38.8°F3.8°C 63% 2.0 mph ESE3.2 kmh ESE 6.0 mph9.7 kmh 29.91 in1012.9 mb 0.00 in0.0 mm 0.00 in0.0 mm 0.10 in2.5 mm
06:00 PM 51.1°F10.6°C 38.6°F3.7°C 62% 3.0 mph N4.8 kmh N 11.0 mph17.7 kmh 29.90 in1012.5 mb 0.00 in0.0 mm 0.00 in0.0 mm 0.10 in2.5 mm
05:50 PM 51.3°F10.7°C 39.2°F4.0°C 63% 5.0 mph SW8.0 kmh SW 7.0 mph11.3 kmh 29.90 in1012.5 mb 0.00 in0.0 mm 0.00 in0.0 mm 0.10 in2.5 mm
05:40 PM 51.2°F10.7°C 39.5°F4.2°C 64% 1.0 mph SE1.6 kmh SE 9.0 mph14.5 kmh 29.90 in1012.5 mb 0.00 in0.0 mm 0.00 in0.0 mm 0.10 in2.5 mm
05:30 PM 51.2°F10.7°C 39.9°F4.4°C 65% 3.0 mph SW4.8 kmh SW 7.0 mph11.3 kmh 29.89 in1012.2 mb 0.00 in0.0 mm 0.00 in0.0 mm 0.10 in2.5 mm
05:20 PM 51.3°F10.7°C 40.0°F4.4°C 65% 4.0 mph SE6.4 kmh SE 4.0 mph6.4 kmh 29.89 in1012.2 mb 0.00 in0.0 mm 0.00 in0.0 mm 0.10 in2.5 mm
05:10 PM 51.0°F10.6°C 39.7°F4.3°C 65% 1.0 mph W1.6 kmh W 4.0 mph6.4 kmh 29.89 in1012.2 mb 0.00 in0.0 mm 0.00 in0.0 mm 0.10 in2.5 mm
05:00 PM 50.7°F10.4°C 39.8°F4.3°C 66% 3.0 mph NW4.8 kmh NW 6.0 mph9.7 kmh 29.89 in1012.2 mb 0.00 in0.0 mm 0.00 in0.0 mm 0.10 in2.5 mm
04:50 PM 50.5°F10.3°C 39.2°F4.0°C 65% 1.0 mph E1.6 kmh E 5.0 mph8.0 kmh 29.89 in1012.2 mb 0.00 in0.0 mm 0.00 in0.0 mm 0.10 in2.5 mm
04:40 PM 50.3°F10.2°C 39.4°F4.1°C 66% 1.0 mph NW1.6 kmh NW 6.0 mph9.7 kmh 29.88 in1011.9 mb 0.00 in0.0 mm 0.00 in0.0 mm 0.10 in2.5 mm
04:30 PM 50.1°F10.1°C 39.6°F4.2°C 67% 2.0 mph SE3.2 kmh SE 4.0 mph6.4 kmh 29.88 in1011.9 mb 0.00 in0.0 mm 0.00 in0.0 mm 0.10 in2.5 mm
04:20 PM 49.8°F9.9°C 39.7°F4.3°C 68% 2.0 mph SSW3.2 kmh SSW 11.0 mph17.7 kmh 29.88 in1011.9 mb 0.00 in0.0 mm 0.00 in0.0 mm 0.10 in2.5 mm
04:10 PM 49.9°F9.9°C 39.4°F4.1°C 67% 2.0 mph SSW3.2 kmh SSW 6.0 mph9.7 kmh 29.88 in1011.9 mb 0.00 in0.0 mm 0.00 in0.0 mm 0.10 in2.5 mm
04:00 PM 50.1°F10.1°C 39.6°F4.2°C 67% 5.0 mph WSW8.0 kmh WSW 9.0 mph14.5 kmh 29.87 in1011.5 mb 0.00 in0.0 mm 0.00 in0.0 mm 0.10 in2.5 mm
03:50 PM 49.9°F9.9°C 39.8°F4.3°C 68% 2.0 mph S3.2 kmh S 4.0 mph6.4 kmh 29.87 in1011.5 mb 0.00 in0.0 mm 0.00 in0.0 mm 0.10 in2.5 mm
03:40 PM 50.1°F10.1°C 39.6°F4.2°C 67% 4.0 mph SSW6.4 kmh SSW 6.0 mph9.7 kmh 29.87 in1011.5 mb 0.00 in0.0 mm 0.00 in0.0 mm 0.10 in2.5 mm
03:30 PM 50.1°F10.1°C 39.6°F4.2°C 67% 1.0 mph SW1.6 kmh SW 7.0 mph11.3 kmh 29.87 in1011.5 mb 0.00 in0.0 mm 0.00 in0.0 mm 0.10 in2.5 mm
03:20 PM 50.2°F10.1°C 39.3°F4.1°C 66% 1.0 mph S1.6 kmh S 10.0 mph16.1 kmh 29.87 in1011.5 mb 0.00 in0.0 mm 0.00 in0.0 mm 0.10 in2.5 mm
03:10 PM 50.8°F10.4°C 39.9°F4.4°C 66% 2.0 mph SW3.2 kmh SW 5.0 mph8.0 kmh 29.86 in1011.2 mb 0.00 in0.0 mm 0.00 in0.0 mm 0.10 in2.5 mm
03:00 PM 51.3°F10.7°C 40.0°F4.4°C 65% 2.0 mph SE3.2 kmh SE 17.0 mph27.4 kmh 29.86 in1011.2 mb 0.00 in0.0 mm 0.00 in0.0 mm 0.10 in2.5 mm
02:50 PM 50.9°F10.5°C 40.7°F4.8°C 68% 3.0 mph S4.8 kmh S 9.0 mph14.5 kmh 29.86 in1011.2 mb 0.00 in0.0 mm 0.00 in0.0 mm 0.10 in2.5 mm
02:40 PM 49.9°F9.9°C 39.8°F4.3°C 68% 2.0 mph SE3.2 kmh SE 6.0 mph9.7 kmh 29.86 in1011.2 mb 0.00 in0.0 mm 0.00 in0.0 mm 0.10 in2.5 mm
02:30 PM 49.2°F9.6°C 40.2°F4.6°C 71% 1.0 mph W1.6 kmh W 4.0 mph6.4 kmh 29.86 in1011.2 mb 0.00 in0.0 mm 0.00 in0.0 mm 0.10 in2.5 mm
02:20 PM 49.0°F9.4°C 39.7°F4.3°C 70% 5.0 mph S8.0 kmh S 6.0 mph9.7 kmh 29.87 in1011.5 mb 0.00 in0.0 mm 0.00 in0.0 mm 0.10 in2.5 mm
02:10 PM 48.7°F9.3°C 39.7°F4.3°C 71% Calm Calm 4.0 mph6.4 kmh 29.87 in1011.5 mb 0.00 in0.0 mm 0.00 in0.0 mm 0.10 in2.5 mm
02:00 PM 48.8°F9.3°C 39.5°F4.2°C 70% 2.0 mph WSW3.2 kmh WSW 6.0 mph9.7 kmh 29.86 in1011.2 mb 0.00 in0.0 mm 0.00 in0.0 mm 0.10 in2.5 mm
01:50 PM 48.9°F9.4°C 39.2°F4.0°C 69% 4.0 mph S6.4 kmh S 6.0 mph9.7 kmh 29.87 in1011.5 mb 0.00 in0.0 mm 0.00 in0.0 mm 0.10 in2.5 mm
01:40 PM 49.1°F9.5°C 39.4°F4.1°C 69% 3.0 mph WSW4.8 kmh WSW 7.0 mph11.3 kmh 29.87 in1011.5 mb 0.00 in0.0 mm 0.00 in0.0 mm 0.10 in2.5 mm
01:30 PM 49.6°F9.8°C 39.5°F4.2°C 68% 5.0 mph NW8.0 kmh NW 7.0 mph11.3 kmh 29.87 in1011.5 mb 0.00 in0.0 mm 0.00 in0.0 mm 0.10 in2.5 mm
01:20 PM 49.9°F9.9°C 40.2°F4.6°C 69% 1.0 mph SE1.6 kmh SE 5.0 mph8.0 kmh 29.86 in1011.2 mb 0.00 in0.0 mm 0.00 in0.0 mm 0.10 in2.5 mm
01:10 PM 49.7°F9.8°C 39.6°F4.2°C 68% 2.0 mph S3.2 kmh S 5.0 mph8.0 kmh 29.86 in1011.2 mb 0.00 in0.0 mm 0.00 in0.0 mm 0.10 in2.5 mm
01:00 PM 48.9°F9.4°C 39.9°F4.4°C 71% 2.0 mph WSW3.2 kmh WSW 5.0 mph8.0 kmh 29.87 in1011.5 mb 0.00 in0.0 mm 0.00 in0.0 mm 0.10 in2.5 mm
12:50 PM 48.2°F9.0°C 39.3°F4.1°C 71% 1.0 mph NW1.6 kmh NW 6.0 mph9.7 kmh 29.87 in1011.5 mb 0.00 in0.0 mm 0.00 in0.0 mm 0.10 in2.5 mm
12:40 PM 48.2°F9.0°C 39.6°F4.2°C 72% 2.0 mph NE3.2 kmh NE 10.0 mph16.1 kmh 29.87 in1011.5 mb 0.00 in0.0 mm 0.00 in0.0 mm 0.10 in2.5 mm
12:30 PM 47.9°F8.8°C 39.7°F4.3°C 73% 4.0 mph NW6.4 kmh NW 5.0 mph8.0 kmh 29.87 in1011.5 mb 0.00 in0.0 mm 0.00 in0.0 mm 0.10 in2.5 mm
12:20 PM 47.6°F8.7°C 39.4°F4.1°C 73% 1.0 mph SE1.6 kmh SE 4.0 mph6.4 kmh 29.87 in1011.5 mb 0.00 in0.0 mm 0.00 in0.0 mm 0.10 in2.5 mm
12:10 PM 47.3°F8.5°C 39.5°F4.2°C 74% 1.0 mph SSW1.6 kmh SSW 5.0 mph8.0 kmh 29.86 in1011.2 mb 0.00 in0.0 mm 0.00 in0.0 mm 0.10 in2.5 mm
12:00 PM 47.0°F8.3°C 38.8°F3.8°C 73% 5.0 mph SSE8.0 kmh SSE 6.0 mph9.7 kmh 29.86 in1011.2 mb 0.00 in0.0 mm 0.00 in0.0 mm 0.10 in2.5 mm
11:50 AM 47.0°F8.3°C 38.8°F3.8°C 73% 2.0 mph N3.2 kmh N 8.0 mph12.9 kmh 29.86 in1011.2 mb 0.00 in0.0 mm 0.00 in0.0 mm 0.10 in2.5 mm
11:40 AM 47.1°F8.4°C 38.9°F3.8°C 73% 3.0 mph SE4.8 kmh SE 5.0 mph8.0 kmh 29.85 in1010.8 mb 0.00 in0.0 mm 0.00 in0.0 mm 0.10 in2.5 mm
11:30 AM 47.1°F8.4°C 39.3°F4.1°C 74% 1.0 mph NW1.6 kmh NW 4.0 mph6.4 kmh 29.85 in1010.8 mb 0.00 in0.0 mm 0.00 in0.0 mm 0.10 in2.5 mm
11:20 AM 47.0°F8.3°C 39.2°F4.0°C 74% 6.0 mph SE9.7 kmh SE 6.0 mph9.7 kmh 29.85 in1010.8 mb 0.00 in0.0 mm 0.00 in0.0 mm 0.10 in2.5 mm
11:10 AM 46.8°F8.2°C 39.0°F3.9°C 74% Calm Calm 5.0 mph8.0 kmh 29.84 in1010.5 mb 0.00 in0.0 mm 0.00 in0.0 mm 0.10 in2.5 mm
11:00 AM 46.7°F8.2°C 39.2°F4.0°C 75% Calm Calm 5.0 mph8.0 kmh 29.84 in1010.5 mb 0.00 in0.0 mm 0.00 in0.0 mm 0.10 in2.5 mm
10:50 AM 46.3°F7.9°C 39.5°F4.2°C 77% 2.0 mph NW3.2 kmh NW 6.0 mph9.7 kmh 29.84 in1010.5 mb 0.00 in0.0 mm 0.00 in0.0 mm 0.10 in2.5 mm
10:40 AM 46.0°F7.8°C 39.5°F4.2°C 78% Calm Calm 5.0 mph8.0 kmh 29.84 in1010.5 mb 0.00 in0.0 mm 0.00 in0.0 mm 0.10 in2.5 mm
10:30 AM 45.9°F7.7°C 39.1°F3.9°C 77% 1.0 mph SE1.6 kmh SE 4.0 mph6.4 kmh 29.84 in1010.5 mb 0.00 in0.0 mm 0.00 in0.0 mm 0.10 in2.5 mm
10:20 AM 45.8°F7.7°C 39.0°F3.9°C 77% 2.0 mph WNW3.2 kmh WNW 9.0 mph14.5 kmh 29.84 in1010.5 mb 0.00 in0.0 mm 0.00 in0.0 mm 0.10 in2.5 mm
10:10 AM 45.6°F7.6°C 39.2°F4.0°C 78% 1.0 mph N1.6 kmh N 6.0 mph9.7 kmh 29.83 in1010.2 mb 0.00 in0.0 mm 0.00 in0.0 mm 0.10 in2.5 mm
10:00 AM 45.6°F7.6°C 39.8°F4.3°C 80% 2.0 mph SE3.2 kmh SE 4.0 mph6.4 kmh 29.83 in1010.2 mb 0.00 in0.0 mm 0.00 in0.0 mm 0.10 in2.5 mm
09:50 AM 45.5°F7.5°C 39.4°F4.1°C 79% 5.0 mph WNW8.0 kmh WNW 8.0 mph12.9 kmh 29.83 in1010.2 mb 0.00 in0.0 mm 0.00 in0.0 mm 0.10 in2.5 mm
09:40 AM 45.5°F7.5°C 39.7°F4.3°C 80% 1.0 mph WNW1.6 kmh WNW 8.0 mph12.9 kmh 29.83 in1010.2 mb 0.00 in0.0 mm 0.00 in0.0 mm 0.10 in2.5 mm
09:30 AM 45.6°F7.6°C 40.1°F4.5°C 81% 5.0 mph NW8.0 kmh NW 6.0 mph9.7 kmh 29.82 in1009.8 mb 0.00 in0.0 mm 0.00 in0.0 mm 0.10 in2.5 mm
09:20 AM 45.5°F7.5°C 40.7°F4.8°C 83% 1.0 mph W1.6 kmh W 4.0 mph6.4 kmh 29.81 in1009.5 mb 0.00 in0.0 mm 0.00 in0.0 mm 0.10 in2.5 mm
09:10 AM 45.5°F7.5°C 40.7°F4.8°C 83% 1.0 mph WSW1.6 kmh WSW 6.0 mph9.7 kmh 29.80 in1009.1 mb 0.00 in0.0 mm 0.00 in0.0 mm 0.10 in2.5 mm
09:00 AM 45.4°F7.4°C 40.6°F4.8°C 83% 3.0 mph W4.8 kmh W 5.0 mph8.0 kmh 29.80 in1009.1 mb 0.00 in0.0 mm 0.00 in0.0 mm 0.10 in2.5 mm
08:50 AM 45.1°F7.3°C 40.3°F4.6°C 83% 3.0 mph WNW4.8 kmh WNW 5.0 mph8.0 kmh 29.79 in1008.8 mb 0.00 in0.0 mm 0.00 in0.0 mm 0.10 in2.5 mm
08:40 AM 44.7°F7.1°C 39.9°F4.4°C 83% 1.0 mph W1.6 kmh W 5.0 mph8.0 kmh 29.79 in1008.8 mb 0.00 in0.0 mm 0.00 in0.0 mm 0.10 in2.5 mm
08:30 AM 44.3°F6.8°C 40.1°F4.5°C 85% Calm Calm 3.0 mph4.8 kmh 29.78 in1008.5 mb 0.00 in0.0 mm 0.00 in0.0 mm 0.10 in2.5 mm
08:20 AM 44.4°F6.9°C 39.9°F4.4°C 84% Calm Calm 6.0 mph9.7 kmh 29.78 in1008.5 mb 0.00 in0.0 mm 0.00 in0.0 mm 0.10 in2.5 mm
08:10 AM 44.8°F7.1°C 40.3°F4.6°C 84% 1.0 mph NW1.6 kmh NW 7.0 mph11.3 kmh 29.78 in1008.5 mb 0.00 in0.0 mm 0.00 in0.0 mm 0.10 in2.5 mm
08:00 AM 45.2°F7.3°C 40.7°F4.8°C 84% 1.0 mph S1.6 kmh S 4.0 mph6.4 kmh 29.77 in1008.1 mb 0.00 in0.0 mm 0.00 in0.0 mm 0.10 in2.5 mm
07:50 AM 45.8°F7.7°C 41.3°F5.2°C 84% Calm Calm 2.0 mph3.2 kmh 29.77 in1008.1 mb 0.00 in0.0 mm 0.00 in0.0 mm 0.10 in2.5 mm
07:40 AM 46.3°F7.9°C 41.7°F5.4°C 84% 1.0 mph NW1.6 kmh NW 6.0 mph9.7 kmh 29.77 in1008.1 mb 0.00 in0.0 mm 0.00 in0.0 mm 0.10 in2.5 mm
07:30 AM 46.6°F8.1°C 42.3°F5.7°C 85% 2.0 mph N3.2 kmh N 5.0 mph8.0 kmh 29.76 in1007.8 mb 0.00 in0.0 mm 0.00 in0.0 mm 0.10 in2.5 mm
07:20 AM 46.8°F8.2°C 42.8°F6.0°C 86% 1.0 mph WSW1.6 kmh WSW 7.0 mph11.3 kmh 29.76 in1007.8 mb 0.00 in0.0 mm 0.00 in0.0 mm 0.10 in2.5 mm
07:10 AM 46.9°F8.3°C 43.2°F6.2°C 87% Calm Calm 4.0 mph6.4 kmh 29.76 in1007.8 mb 0.01 in0.3 mm 0.00 in0.0 mm 0.10 in2.5 mm
07:00 AM 47.0°F8.3°C 43.6°F6.4°C 88% Calm Calm 5.0 mph8.0 kmh 29.76 in1007.8 mb 0.01 in0.3 mm 0.00 in0.0 mm 0.10 in2.5 mm
06:50 AM 47.0°F8.3°C 43.9°F6.6°C 89% 2.0 mph NW3.2 kmh NW 3.0 mph4.8 kmh 29.76 in1007.8 mb 0.01 in0.3 mm 0.00 in0.0 mm 0.10 in2.5 mm
06:40 AM 46.8°F8.2°C 44.0°F6.7°C 90% 3.0 mph ESE4.8 kmh ESE 5.0 mph8.0 kmh 29.76 in1007.8 mb 0.02 in0.5 mm 0.00 in0.0 mm 0.10 in2.5 mm
06:30 AM 46.7°F8.2°C 43.9°F6.6°C 90% 1.0 mph E1.6 kmh E 2.0 mph3.2 kmh 29.75 in1007.5 mb 0.04 in1.0 mm 0.00 in0.0 mm 0.10 in2.5 mm
06:20 AM 46.9°F8.3°C 44.1°F6.7°C 90% Calm Calm 2.0 mph3.2 kmh 29.76 in1007.8 mb 0.04 in1.0 mm 0.00 in0.0 mm 0.10 in2.5 mm
06:10 AM 47.1°F8.4°C 44.0°F6.7°C 89% Calm Calm 3.0 mph4.8 kmh 29.76 in1007.8 mb 0.05 in1.3 mm 0.06 in1.5 mm 0.10 in2.5 mm
06:00 AM 47.2°F8.4°C 44.1°F6.7°C 89% Calm Calm 3.0 mph4.8 kmh 29.76 in1007.8 mb 0.04 in1.0 mm 0.00 in0.0 mm 0.09 in2.3 mm
05:50 AM 47.3°F8.5°C 44.5°F6.9°C 90% 2.0 mph S3.2 kmh S 3.0 mph4.8 kmh 29.76 in1007.8 mb 0.06 in1.5 mm 0.00 in0.0 mm 0.09 in2.3 mm
05:40 AM 47.4°F8.6°C 44.3°F6.8°C 89% 1.0 mph ENE1.6 kmh ENE 4.0 mph6.4 kmh 29.75 in1007.5 mb 0.06 in1.5 mm 0.12 in3.0 mm 0.09 in2.3 mm
05:30 AM 47.6°F8.7°C 44.5°F6.9°C 89% 2.0 mph NW3.2 kmh NW 3.0 mph4.8 kmh 29.76 in1007.8 mb 0.04 in1.0 mm 0.00 in0.0 mm 0.07 in1.8 mm
05:20 AM 47.8°F8.8°C 44.7°F7.1°C 89% Calm Calm 5.0 mph8.0 kmh 29.76 in1007.8 mb 0.05 in1.3 mm 0.06 in1.5 mm 0.07 in1.8 mm
05:10 AM 47.9°F8.8°C 44.5°F6.9°C 88% 3.0 mph NW4.8 kmh NW 7.0 mph11.3 kmh 29.76 in1007.8 mb 0.04 in1.0 mm 0.00 in0.0 mm 0.06 in1.5 mm
05:00 AM 48.3°F9.1°C 44.6°F7.0°C 87% 4.0 mph WNW6.4 kmh WNW 7.0 mph11.3 kmh 29.75 in1007.5 mb 0.04 in1.0 mm 0.02 in0.5 mm 0.06 in1.5 mm
04:50 AM 49.5°F9.7°C 45.5°F7.5°C 86% 1.0 mph W1.6 kmh W 9.0 mph14.5 kmh 29.76 in1007.8 mb 0.02 in0.5 mm 0.06 in1.5 mm 0.04 in1.0 mm
04:40 AM 51.3°F10.7°C 46.3°F7.9°C 83% 1.0 mph WSW1.6 kmh WSW 6.0 mph9.7 kmh 29.77 in1008.1 mb 0.01 in0.3 mm 0.00 in0.0 mm 0.03 in0.8 mm
04:30 AM 52.6°F11.4°C 47.6°F8.7°C 83% 4.0 mph W6.4 kmh W 11.0 mph17.7 kmh 29.76 in1007.8 mb 0.01 in0.3 mm 0.06 in1.5 mm 0.03 in0.8 mm
04:20 AM 53.2°F11.8°C 47.5°F8.6°C 81% 2.0 mph NW3.2 kmh NW 9.0 mph14.5 kmh 29.74 in1007.1 mb 0.00 in0.0 mm 0.00 in0.0 mm 0.02 in0.5 mm
04:10 AM 53.9°F12.2°C 49.5°F9.7°C 85% 3.0 mph NW4.8 kmh NW 6.0 mph9.7 kmh 29.74 in1007.1 mb 0.00 in0.0 mm 0.00 in0.0 mm 0.02 in0.5 mm
04:00 AM 54.7°F12.6°C 50.6°F10.3°C 86% 2.0 mph N3.2 kmh N 5.0 mph8.0 kmh 29.73 in1006.8 mb 0.00 in0.0 mm 0.00 in0.0 mm 0.02 in0.5 mm
03:50 AM 55.8°F13.2°C 51.4°F10.8°C 85% 1.0 mph NW1.6 kmh NW 7.0 mph11.3 kmh 29.73 in1006.8 mb 0.00 in0.0 mm 0.00 in0.0 mm 0.02 in0.5 mm
03:40 AM 57.8°F14.3°C 52.4°F11.3°C 82% 4.0 mph NW6.4 kmh NW 16.0 mph25.7 kmh 29.73 in1006.8 mb 0.00 in0.0 mm 0.00 in0.0 mm 0.02 in0.5 mm
03:30 AM 61.6°F16.4°C 59.0°F15.0°C 91% Calm Calm 4.0 mph6.4 kmh 29.71 in1006.1 mb 0.00 in0.0 mm 0.00 in0.0 mm 0.02 in0.5 mm
03:20 AM 61.6°F16.4°C 59.0°F15.0°C 91% 3.0 mph S4.8 kmh S 5.0 mph8.0 kmh 29.71 in1006.1 mb 0.00 in0.0 mm 0.00 in0.0 mm 0.02 in0.5 mm
03:10 AM 61.7°F16.5°C 58.7°F14.8°C 90% 2.0 mph SW3.2 kmh SW 5.0 mph8.0 kmh 29.71 in1006.1 mb 0.00 in0.0 mm 0.00 in0.0 mm 0.02 in0.5 mm
03:00 AM 61.9°F16.6°C 58.6°F14.8°C 89% 2.0 mph S3.2 kmh S 4.0 mph6.4 kmh 29.72 in1006.4 mb 0.00 in0.0 mm 0.00 in0.0 mm 0.02 in0.5 mm
02:50 AM 62.1°F16.7°C 58.5°F14.7°C 88% 2.0 mph S3.2 kmh S 3.0 mph4.8 kmh 29.72 in1006.4 mb 0.00 in0.0 mm 0.00 in0.0 mm 0.02 in0.5 mm
02:40 AM 62.2°F16.8°C 58.3°F14.6°C 87% 4.0 mph S6.4 kmh S 5.0 mph8.0 kmh 29.73 in1006.8 mb 0.00 in0.0 mm 0.00 in0.0 mm 0.02 in0.5 mm
02:30 AM 62.3°F16.8°C 58.4°F14.7°C 87% 2.0 mph S3.2 kmh S 7.0 mph11.3 kmh 29.73 in1006.8 mb 0.00 in0.0 mm 0.00 in0.0 mm 0.02 in0.5 mm
02:20 AM 62.3°F16.8°C 58.7°F14.8°C 88% 2.0 mph S3.2 kmh S 5.0 mph8.0 kmh 29.74 in1007.1 mb 0.00 in0.0 mm 0.00 in0.0 mm 0.02 in0.5 mm
02:10 AM 62.3°F16.8°C 58.7°F14.8°C 88% 3.0 mph S4.8 kmh S 4.0 mph6.4 kmh 29.75 in1007.5 mb 0.00 in0.0 mm 0.00 in0.0 mm 0.02 in0.5 mm
02:00 AM 62.3°F16.8°C 58.7°F14.8°C 88% 3.0 mph S4.8 kmh S 7.0 mph11.3 kmh 29.75 in1007.5 mb 0.00 in0.0 mm 0.00 in0.0 mm 0.02 in0.5 mm
01:50 AM 62.1°F16.7°C 58.5°F14.7°C 88% 3.0 mph S4.8 kmh S 4.0 mph6.4 kmh 29.76 in1007.8 mb 0.00 in0.0 mm 0.00 in0.0 mm 0.02 in0.5 mm
01:40 AM 62.2°F16.8°C 58.3°F14.6°C 87% 2.0 mph SSE3.2 kmh SSE 4.0 mph6.4 kmh 29.75 in1007.5 mb 0.00 in0.0 mm 0.00 in0.0 mm 0.02 in0.5 mm
01:30 AM 62.4°F16.9°C 58.2°F14.6°C 86% 2.0 mph S3.2 kmh S 5.0 mph8.0 kmh 29.76 in1007.8 mb 0.01 in0.3 mm 0.00 in0.0 mm 0.02 in0.5 mm
01:20 AM 62.6°F17.0°C 58.0°F14.4°C 85% 2.0 mph S3.2 kmh S 11.0 mph17.7 kmh 29.76 in1007.8 mb 0.01 in0.3 mm 0.00 in0.0 mm 0.02 in0.5 mm
01:10 AM 62.9°F17.2°C 58.3°F14.6°C 85% 2.0 mph S3.2 kmh S 4.0 mph6.4 kmh 29.76 in1007.8 mb 0.02 in0.5 mm 0.00 in0.0 mm 0.02 in0.5 mm
12:59 AM 63.1°F17.3°C 57.9°F14.4°C 83% 2.0 mph W3.2 kmh W 4.0 mph6.4 kmh 29.75 in1007.5 mb 0.02 in0.5 mm 0.00 in0.0 mm 0.02 in0.5 mm
12:50 AM 63.2°F17.3°C 58.0°F14.4°C 83% 3.0 mph SW4.8 kmh SW 11.0 mph17.7 kmh 29.74 in1007.1 mb 0.02 in0.5 mm 0.00 in0.0 mm 0.02 in0.5 mm
12:40 AM 63.2°F17.3°C 58.3°F14.6°C 84% 3.0 mph S4.8 kmh S 5.0 mph8.0 kmh 29.75 in1007.5 mb 0.02 in0.5 mm 0.06 in1.5 mm 0.02 in0.5 mm
12:30 AM 63.8°F17.7°C 57.9°F14.4°C 81% 6.0 mph S9.7 kmh S 10.0 mph16.1 kmh 29.76 in1007.8 mb 0.01 in0.3 mm 0.00 in0.0 mm 0.01 in0.3 mm
12:20 AM 65.9°F18.8°C 58.5°F14.7°C 77% 5.0 mph SSW8.0 kmh SSW 16.0 mph25.7 kmh 29.76 in1007.8 mb 0.01 in0.3 mm 0.06 in1.5 mm 0.01 in0.3 mm
12:10 AM 67.2°F19.6°C 57.9°F14.4°C 72% 5.0 mph SSW8.0 kmh SSW 10.0 mph16.1 kmh 29.76 in1007.8 mb 0.00 in0.0 mm 0.00 in0.0 mm 0.00 in0.0 mm
12:00 AM 67.2°F19.6°C 57.5°F14.2°C 71% 1.0 mph S1.6 kmh S 6.0 mph9.7 kmh 29.77 in1008.1 mb 0.00 in0.0 mm 0.00 in0.0 mm 0.00 in0.0 mm